createdAt,value
2018-03-22T00:01:50.917Z,21.73
2018-03-22T00:04:18.490Z,20.08
2018-03-22T00:06:46.042Z,15.07
2018-03-22T00:09:13.556Z,22.27
2018-03-22T00:11:41.187Z,24.12
2018-03-22T00:14:08.695Z,21.12
2018-03-22T00:16:36.238Z,17.12
2018-03-22T00:19:03.754Z,25.12
2018-03-22T00:21:31.257Z,24.27
2018-03-22T00:23:58.766Z,16.10
2018-03-22T00:26:26.301Z,21.95
2018-03-22T00:28:53.853Z,26.02
2018-03-22T00:31:21.403Z,16.55
2018-03-22T00:33:48.998Z,21.83
2018-03-22T00:36:16.502Z,23.20
2018-03-22T00:38:44.018Z,21.60
2018-03-22T00:41:11.645Z,13.68
2018-03-22T00:43:39.186Z,14.80
2018-03-22T00:46:06.749Z,24.95
2018-03-22T00:48:34.329Z,19.50
2018-03-22T00:51:01.895Z,22.30
2018-03-22T00:53:29.437Z,25.55
2018-03-22T00:55:56.941Z,25.85
2018-03-22T00:58:24.464Z,19.08
2018-03-22T01:00:52.004Z,18.30
2018-03-22T01:03:19.578Z,15.90
2018-03-22T01:05:47.121Z,17.67
2018-03-22T01:08:14.689Z,15.82
2018-03-22T01:10:42.250Z,19.17
2018-03-22T01:13:09.793Z,30.48
2018-03-22T01:15:37.290Z,25.88
2018-03-22T01:18:04.864Z,22.77
2018-03-22T01:20:32.417Z,26.30
2018-03-22T01:22:59.995Z,20.15
2018-03-22T01:25:27.561Z,20.88
2018-03-22T01:27:55.065Z,22.62
2018-03-22T01:30:34.382Z,26.15
2018-03-22T01:33:01.889Z,21.58
2018-03-22T01:35:29.479Z,27.20
2018-03-22T01:37:57.033Z,33.63
2018-03-22T01:40:24.606Z,34.55
2018-03-22T01:42:52.224Z,25.62
2018-03-22T01:45:19.724Z,22.23
2018-03-22T01:47:47.264Z,23.73
2018-03-22T01:50:14.810Z,18.67
2018-03-22T01:55:48.501Z,18.45
2018-03-22T01:58:16.133Z,27.80
2018-03-22T02:00:43.815Z,21.50
2018-03-22T02:03:11.324Z,23.15
2018-03-22T02:05:38.874Z,24.50
2018-03-22T02:08:06.404Z,28.10
2018-03-22T02:10:33.969Z,29.23
2018-03-22T02:13:01.529Z,26.50
2018-03-22T02:15:29.149Z,31.48
2018-03-22T02:18:02.065Z,21.33
2018-03-22T02:20:29.609Z,27.17
2018-03-22T02:22:57.113Z,32.53
2018-03-22T02:25:24.624Z,39.85
2018-03-22T02:27:52.265Z,20.17
2018-03-22T02:30:19.834Z,24.92
2018-03-22T02:32:47.595Z,27.52
2018-03-22T02:35:15.225Z,22.17
2018-03-22T02:37:42.766Z,21.67
2018-03-22T02:40:10.288Z,29.95
2018-03-22T02:42:37.809Z,23.40
2018-03-22T02:45:05.377Z,25.75
2018-03-22T02:47:32.982Z,28.38
2018-03-22T02:50:00.577Z,31.73
2018-03-22T02:52:28.255Z,26.62
2018-03-22T02:54:55.764Z,27.77
2018-03-22T02:57:23.308Z,22.75
2018-03-22T02:59:50.848Z,30.65
2018-03-22T03:02:18.741Z,26.58
2018-03-22T03:04:46.397Z,30.62
2018-03-22T03:07:13.981Z,19.70
2018-03-22T03:09:41.529Z,24.50
2018-03-22T03:12:09.053Z,19.30
2018-03-22T03:14:36.574Z,20.60
2018-03-22T03:17:04.109Z,18.08
2018-03-22T03:19:31.658Z,22.87
2018-03-22T03:21:59.335Z,13.15
2018-03-22T03:24:26.889Z,27.23
2018-03-22T03:26:55.133Z,26.87
2018-03-22T03:29:22.673Z,32.35
2018-03-22T03:31:50.185Z,22.90
2018-03-22T03:34:17.704Z,25.23
2018-03-22T03:36:45.353Z,24.50
2018-03-22T03:39:12.929Z,22.00
2018-03-22T03:41:40.529Z,19.65
2018-03-22T03:44:08.089Z,27.13
2018-03-22T03:46:35.625Z,18.67
2018-03-22T03:49:03.149Z,28.38
2018-03-22T03:51:30.672Z,27.40
2018-03-22T03:53:58.234Z,21.25
2018-03-22T03:56:25.772Z,27.77
2018-03-22T03:58:53.311Z,20.73
2018-03-22T04:01:20.901Z,31.50
2018-03-22T04:03:48.424Z,28.40
2018-03-22T04:06:15.989Z,15.98
2018-03-22T04:08:43.504Z,19.45
2018-03-22T04:11:11.072Z,16.00
2018-03-22T04:13:38.681Z,18.80
2018-03-22T04:16:18.165Z,9.35
2018-03-22T04:18:45.731Z,11.75
2018-03-22T04:21:13.253Z,6.32
2018-03-22T04:23:40.756Z,14.65
2018-03-22T04:26:08.279Z,8.38
2018-03-22T04:28:35.832Z,15.75
2018-03-22T04:31:04.138Z,13.85
2018-03-22T04:33:31.814Z,13.88
2018-03-22T04:35:59.364Z,6.87
2018-03-22T04:38:26.916Z,14.93
2018-03-22T04:40:54.456Z,11.40
2018-03-22T04:43:21.985Z,13.55
2018-03-22T04:45:49.517Z,9.25
2018-03-22T04:48:17.070Z,4.78
2018-03-22T04:50:44.628Z,13.98
2018-03-22T04:53:12.286Z,2.50
2018-03-22T04:55:39.801Z,11.77
2018-03-22T04:58:07.334Z,10.48
2018-03-22T05:00:34.865Z,13.05
2018-03-22T05:03:02.459Z,17.08
2018-03-22T05:05:30.073Z,9.40
2018-03-22T05:07:57.627Z,7.03
2018-03-22T05:10:25.204Z,14.35
2018-03-22T05:12:52.716Z,9.20
2018-03-22T05:15:20.415Z,14.20
2018-03-22T05:17:47.935Z,9.68
2018-03-22T05:20:15.477Z,10.32
2018-03-22T05:22:43.037Z,8.27
2018-03-22T05:25:10.617Z,9.52
2018-03-22T05:27:38.164Z,11.55
2018-03-22T05:30:05.704Z,11.70
2018-03-22T05:32:33.218Z,9.25
2018-03-22T05:35:00.717Z,8.70
2018-03-22T05:37:28.261Z,7.72
2018-03-22T05:39:55.960Z,9.45
2018-03-22T05:42:23.586Z,12.32
2018-03-22T05:44:51.125Z,9.45
2018-03-22T05:47:18.673Z,4.03
2018-03-22T05:49:46.204Z,7.78
2018-03-22T05:52:13.733Z,9.00
2018-03-22T05:54:41.285Z,20.42
2018-03-22T05:57:08.922Z,9.30
2018-03-22T05:59:36.476Z,8.68
2018-03-22T06:02:04.077Z,9.18
2018-03-22T06:04:31.634Z,4.40
2018-03-22T06:06:59.173Z,5.75
2018-03-22T06:09:26.697Z,7.18
2018-03-22T06:11:54.348Z,8.18
2018-03-22T06:14:21.894Z,7.93
2018-03-22T06:16:50.424Z,8.88
2018-03-22T06:19:18.033Z,8.88
2018-03-22T06:21:45.572Z,12.85
2018-03-22T06:24:13.109Z,11.68
2018-03-22T06:26:40.629Z,9.50
2018-03-22T06:29:08.175Z,9.00
2018-03-22T06:31:35.849Z,15.25
2018-03-22T06:34:04.027Z,9.52
2018-03-22T06:36:31.894Z,11.27
2018-03-22T06:38:59.461Z,15.55
2018-03-22T06:41:26.985Z,13.02
2018-03-22T06:43:54.509Z,8.88
2018-03-22T06:46:22.061Z,13.13
2018-03-22T06:48:49.633Z,11.10
2018-03-22T06:51:17.173Z,19.40
2018-03-22T06:53:44.719Z,16.15
2018-03-22T06:56:12.249Z,16.95
2018-03-22T06:58:39.753Z,11.73
2018-03-22T07:01:07.309Z,9.93
2018-03-22T07:03:34.860Z,10.77
2018-03-22T07:06:03.211Z,13.93
2018-03-22T07:08:30.762Z,11.50
2018-03-22T07:10:58.322Z,6.43
2018-03-22T07:13:25.900Z,9.68
2018-03-22T07:15:53.425Z,11.77
2018-03-22T07:18:20.966Z,13.45
2018-03-22T07:20:48.532Z,14.25
2018-03-22T07:23:16.098Z,7.62
2018-03-22T07:25:44.875Z,7.05
2018-03-22T07:28:13.302Z,9.88
2018-03-22T07:30:40.844Z,15.23
2018-03-22T07:33:08.361Z,8.60
2018-03-22T07:35:35.896Z,6.20
2018-03-22T07:38:03.447Z,6.40
2018-03-22T07:40:30.999Z,9.55
2018-03-22T07:43:04.210Z,11.43
2018-03-22T07:45:33.598Z,8.52
2018-03-22T07:48:01.116Z,9.30
2018-03-22T07:50:28.632Z,12.57
2018-03-22T07:52:56.143Z,7.87
2018-03-22T07:55:23.745Z,11.40
2018-03-22T07:57:51.333Z,17.80
2018-03-22T08:00:18.953Z,8.70
2018-03-22T08:02:46.513Z,13.13
2018-03-22T08:05:14.957Z,9.32
2018-03-22T08:07:42.485Z,10.40
2018-03-22T08:10:10.022Z,11.45
2018-03-22T08:12:37.648Z,11.20
2018-03-22T08:15:06.301Z,12.52
2018-03-22T08:17:34.702Z,8.23
2018-03-22T08:22:56.253Z,11.52
2018-03-22T08:25:23.789Z,13.20
2018-03-22T08:27:51.308Z,13.77
2018-03-22T08:30:18.885Z,13.02
2018-03-22T08:32:52.304Z,9.05
2018-03-22T08:35:22.489Z,10.38
2018-03-22T08:37:50.026Z,13.30
2018-03-22T08:40:17.635Z,9.15
2018-03-22T08:42:45.179Z,3.87
2018-03-22T08:45:12.724Z,7.25
2018-03-22T08:47:40.308Z,5.15
2018-03-22T08:50:07.881Z,8.32
2018-03-22T08:52:35.449Z,5.82
2018-03-22T08:55:03.080Z,5.05
2018-03-22T08:57:30.600Z,11.20
2018-03-22T08:59:58.104Z,9.02
2018-03-22T09:02:25.656Z,6.90
2018-03-22T09:04:53.204Z,14.07
2018-03-22T09:07:20.757Z,10.18
2018-03-22T09:09:48.365Z,14.57
2018-03-22T09:12:15.861Z,16.00
2018-03-22T09:14:43.418Z,14.18
2018-03-22T09:17:10.930Z,11.50
2018-03-22T09:19:38.447Z,10.13
2018-03-22T09:22:06.005Z,14.65
2018-03-22T09:24:34.429Z,16.00
2018-03-22T09:27:05.875Z,10.52
2018-03-22T09:29:33.998Z,6.12
2018-03-22T09:32:01.524Z,11.35
2018-03-22T09:34:29.026Z,11.02
2018-03-22T09:36:57.308Z,12.98
2018-03-22T09:39:24.900Z,9.32
2018-03-22T09:41:52.659Z,8.40
2018-03-22T09:44:20.185Z,11.68
2018-03-22T09:46:47.745Z,13.60
2018-03-22T09:49:15.266Z,10.18
2018-03-22T09:51:42.797Z,10.55
2018-03-22T09:54:10.310Z,11.98
2018-03-22T09:56:37.951Z,9.95
2018-03-22T09:59:05.493Z,7.10
2018-03-22T10:01:33.086Z,9.60
2018-03-22T10:04:01.574Z,6.72
2018-03-22T10:06:29.081Z,13.00
2018-03-22T10:08:56.641Z,8.55
2018-03-22T10:11:24.174Z,9.60
2018-03-22T10:13:51.789Z,6.68
2018-03-22T10:16:19.376Z,7.53
2018-03-22T10:18:46.933Z,10.73
2018-03-22T10:21:14.493Z,8.50
2018-03-22T10:23:42.671Z,10.68
2018-03-22T10:26:10.195Z,14.50
2018-03-22T10:28:37.724Z,12.95
2018-03-22T10:31:05.288Z,9.40
2018-03-22T10:33:32.849Z,11.63
2018-03-22T10:36:00.365Z,7.62
2018-03-22T10:38:27.916Z,8.37
2018-03-22T10:40:55.433Z,6.87
2018-03-22T10:43:22.948Z,4.10
2018-03-22T10:45:50.473Z,6.40
2018-03-22T10:48:18.100Z,5.62
2018-03-22T10:50:45.666Z,7.55
2018-03-22T10:53:13.240Z,16.00
2018-03-22T10:55:41.577Z,7.00
2018-03-22T10:58:09.101Z,7.43
2018-03-22T11:00:38.486Z,5.37
2018-03-22T11:03:11.448Z,8.85
2018-03-22T11:05:39.062Z,10.38
2018-03-22T11:08:06.629Z,8.73
2018-03-22T11:10:34.185Z,16.17
2018-03-22T11:13:02.444Z,11.00
2018-03-22T11:15:29.957Z,11.10
2018-03-22T11:17:57.486Z,14.27
2018-03-22T11:20:25.015Z,7.85
2018-03-22T11:22:52.537Z,7.57
2018-03-22T11:25:20.505Z,10.20
2018-03-22T11:27:48.083Z,8.05
2018-03-22T11:30:15.614Z,8.52
2018-03-22T11:32:43.144Z,6.50
2018-03-22T11:35:10.644Z,9.43
2018-03-22T11:37:38.161Z,8.13
2018-03-22T11:40:07.496Z,5.20
2018-03-22T11:42:54.504Z,3.72
2018-03-22T11:45:30.441Z,8.80
2018-03-22T11:48:00.808Z,8.75
2018-03-22T11:50:28.288Z,6.97
2018-03-22T11:52:55.829Z,6.35
2018-03-22T11:55:23.340Z,8.50
2018-03-22T11:57:50.905Z,14.38
2018-03-22T12:00:22.217Z,8.35
2018-03-22T12:06:00.548Z,9.23
2018-03-22T12:08:28.080Z,6.95
2018-03-22T12:10:55.588Z,9.60
2018-03-22T12:13:23.132Z,5.82
2018-03-22T12:15:50.701Z,8.80
2018-03-22T12:18:29.867Z,7.73
2018-03-22T12:20:59.993Z,8.20
2018-03-22T12:23:27.534Z,7.30
2018-03-22T12:25:55.072Z,3.70
2018-03-22T12:28:22.616Z,6.45
2018-03-22T12:30:50.152Z,7.30
2018-03-22T12:33:17.741Z,8.17
2018-03-22T12:38:37.654Z,4.65
2018-03-22T12:41:05.181Z,7.37
2018-03-22T12:43:32.773Z,5.77
2018-03-22T12:46:00.277Z,5.50
2018-03-22T12:48:27.800Z,7.65
2018-03-22T12:50:55.365Z,5.12
2018-03-22T12:53:22.965Z,6.40
2018-03-22T12:55:50.489Z,8.07
2018-03-22T12:58:17.984Z,8.87
2018-03-22T13:00:45.507Z,4.13
2018-03-22T13:03:13.000Z,6.27
2018-03-22T13:05:40.601Z,4.85
2018-03-22T13:10:41.666Z,5.18
2018-03-22T13:13:09.209Z,8.67
2018-03-22T13:15:36.747Z,6.43
2018-03-22T13:18:04.248Z,6.68
2018-03-22T13:20:31.777Z,9.30
2018-03-22T13:22:59.332Z,10.30
2018-03-22T13:25:34.658Z,11.00
2018-03-22T13:28:02.221Z,9.90
2018-03-22T13:30:29.777Z,12.23
2018-03-22T13:32:57.296Z,6.00
2018-03-22T13:35:24.804Z,7.90
2018-03-22T13:37:52.325Z,6.62
2018-03-22T13:40:19.881Z,8.03
2018-03-22T13:42:47.431Z,5.68
2018-03-22T13:45:15.026Z,6.47
2018-03-22T13:52:14.109Z,5.03
2018-03-22T13:54:41.640Z,4.97
2018-03-22T13:57:09.156Z,8.20
2018-03-22T13:59:42.642Z,7.17
2018-03-22T14:02:10.185Z,5.37
2018-03-22T14:04:37.713Z,3.20
2018-03-22T14:07:05.231Z,5.43
2018-03-22T14:09:32.741Z,8.03
2018-03-22T14:12:00.285Z,5.60
2018-03-22T14:14:27.824Z,6.50
2018-03-22T14:16:55.329Z,6.77
2018-03-22T14:19:22.880Z,8.87
2018-03-22T14:21:50.656Z,7.10
2018-03-22T14:24:18.234Z,6.20
2018-03-22T14:26:45.753Z,5.33
2018-03-22T14:29:13.278Z,6.57
2018-03-22T14:31:40.817Z,7.17
2018-03-22T14:34:08.393Z,6.03
2018-03-22T14:36:37.169Z,5.40
2018-03-22T14:39:04.769Z,7.97
2018-03-22T14:41:32.265Z,8.53
2018-03-22T14:43:59.800Z,8.80
2018-03-22T14:46:27.310Z,6.93
2018-03-22T14:48:54.881Z,16.07
2018-03-22T14:51:26.210Z,7.97
2018-03-22T14:53:53.769Z,13.32
2018-03-22T14:56:21.353Z,5.43
2018-03-22T14:58:48.872Z,7.20
2018-03-22T15:01:16.406Z,5.63
2018-03-22T15:03:43.938Z,5.53
2018-03-22T15:06:12.398Z,8.37
2018-03-22T15:08:40.005Z,8.63
2018-03-22T15:11:07.630Z,5.97
2018-03-22T15:13:38.180Z,9.07
2018-03-22T15:16:06.786Z,11.40
2018-03-22T15:18:34.285Z,9.37
2018-03-22T15:21:01.816Z,8.83
2018-03-22T15:23:29.349Z,8.57
2018-03-22T15:25:56.909Z,7.83
2018-03-22T15:28:24.533Z,12.00
2018-03-22T15:30:52.058Z,7.97
2018-03-22T15:33:19.795Z,5.47
2018-03-22T15:35:47.316Z,6.40
2018-03-22T15:38:14.852Z,11.03
2018-03-22T15:40:42.368Z,6.73
2018-03-22T15:46:15.852Z,7.30
2018-03-22T15:48:45.513Z,4.87
2018-03-22T15:51:13.031Z,6.80
2018-03-22T15:53:40.563Z,6.73
2018-03-22T15:56:08.084Z,7.87
2018-03-22T15:58:36.307Z,9.80
2018-03-22T16:01:04.685Z,9.67
2018-03-22T16:03:32.313Z,8.33
2018-03-22T16:06:00.061Z,9.73
2018-03-22T16:08:27.616Z,9.53
2018-03-22T16:10:55.117Z,10.17
2018-03-22T16:13:22.638Z,8.43
2018-03-22T16:15:50.172Z,8.40
2018-03-22T16:18:17.701Z,5.73
2018-03-22T16:20:45.245Z,12.80
2018-03-22T16:23:12.830Z,13.17
2018-03-22T16:25:40.400Z,10.35
2018-03-22T16:28:07.928Z,9.30
2018-03-22T16:30:35.464Z,8.57
2018-03-22T16:33:03.005Z,11.37
2018-03-22T16:35:30.554Z,6.07
2018-03-22T16:37:58.145Z,9.20
2018-03-22T16:40:25.655Z,7.30
2018-03-22T16:42:53.178Z,6.83
2018-03-22T16:45:20.758Z,8.20
2018-03-22T16:47:48.226Z,8.87
2018-03-22T16:50:16.276Z,8.30
2018-03-22T16:52:44.686Z,15.23
2018-03-22T16:55:12.211Z,13.07
2018-03-22T16:57:40.860Z,7.87
2018-03-22T17:00:08.410Z,15.40
2018-03-22T17:02:35.920Z,8.90
2018-03-22T17:05:03.481Z,13.13
2018-03-22T17:07:31.072Z,15.55
2018-03-22T17:09:58.605Z,11.20
2018-03-22T17:12:26.153Z,10.03
2018-03-22T17:14:53.708Z,11.27
2018-03-22T17:17:21.246Z,11.50
2018-03-22T17:19:48.784Z,10.95
2018-03-22T17:22:16.368Z,7.35
2018-03-22T17:24:43.984Z,8.02
2018-03-22T17:27:11.569Z,11.50
2018-03-22T17:29:39.150Z,17.55
2018-03-22T17:32:06.777Z,12.52
2018-03-22T17:34:34.344Z,10.83
2018-03-22T17:37:01.857Z,11.30
2018-03-22T17:39:29.395Z,8.10
2018-03-22T17:41:56.936Z,9.50
2018-03-22T17:44:24.473Z,8.37
2018-03-22T17:46:52.066Z,9.30
2018-03-22T17:49:19.654Z,8.95
2018-03-22T17:54:20.361Z,12.02
2018-03-22T17:56:47.908Z,9.77
2018-03-22T17:59:15.981Z,10.77
2018-03-22T18:01:43.509Z,9.70
2018-03-22T18:04:11.069Z,9.70
2018-03-22T18:06:38.634Z,12.07
2018-03-22T18:09:06.280Z,16.30
2018-03-22T18:11:33.866Z,13.57
2018-03-22T18:14:01.374Z,9.48
2018-03-22T18:16:28.925Z,14.68
2018-03-22T18:18:56.539Z,12.85
2018-03-22T18:21:24.085Z,18.70
2018-03-22T18:26:32.173Z,12.55
2018-03-22T18:28:59.693Z,12.80
2018-03-22T18:31:27.286Z,12.07
2018-03-22T18:33:54.845Z,16.55
2018-03-22T18:36:22.410Z,14.07
2018-03-22T18:38:50.008Z,11.23
2018-03-22T18:43:59.688Z,16.25
2018-03-22T18:46:27.240Z,12.20
2018-03-22T18:48:54.774Z,14.77
2018-03-22T18:51:22.326Z,20.30
2018-03-22T18:53:56.512Z,9.55
2018-03-22T18:56:24.134Z,15.13
2018-03-22T18:58:51.772Z,13.77
2018-03-22T19:01:19.284Z,13.82
2018-03-22T19:03:46.838Z,14.98
2018-03-22T19:06:14.349Z,21.83
2018-03-22T19:08:41.931Z,16.45
2018-03-22T19:11:09.555Z,18.02
2018-03-22T19:13:37.081Z,12.77
2018-03-22T19:16:07.521Z,21.40
2018-03-22T19:18:35.060Z,15.95
2018-03-22T19:21:02.602Z,21.90
2018-03-22T19:23:30.140Z,14.73
2018-03-22T19:25:57.690Z,18.65
2018-03-22T19:28:25.264Z,16.70
2018-03-22T19:30:52.833Z,17.42
2018-03-22T19:33:41.174Z,15.43
2018-03-22T19:36:08.681Z,19.55
2018-03-22T19:38:36.232Z,18.60
2018-03-22T19:41:03.780Z,15.00
2018-03-22T19:43:31.340Z,19.75
2018-03-22T19:46:07.972Z,13.88
2018-03-22T19:53:52.932Z,18.83
2018-03-22T19:56:20.488Z,15.73
2018-03-22T19:58:48.006Z,15.20
2018-03-22T20:01:15.603Z,13.68
2018-03-22T20:03:43.166Z,14.38
2018-03-22T20:06:10.772Z,20.30
2018-03-22T20:08:38.309Z,16.75
2018-03-22T20:11:05.835Z,11.75
2018-03-22T20:13:33.381Z,13.35
2018-03-22T20:16:00.893Z,9.30
2018-03-22T20:18:34.185Z,10.50
2018-03-22T20:21:01.790Z,9.63
2018-03-22T20:23:29.377Z,8.23
2018-03-22T20:25:56.925Z,8.63
2018-03-22T20:28:24.433Z,7.90
2018-03-22T20:30:51.952Z,10.95
2018-03-22T20:33:19.494Z,8.63
2018-03-22T20:44:42.099Z,7.75
2018-03-22T20:47:09.646Z,10.35
2018-03-22T20:49:37.164Z,8.10
2018-03-22T20:52:04.721Z,7.18
2018-03-22T20:54:32.397Z,7.32
2018-03-22T20:57:06.686Z,6.60
2018-03-22T20:59:34.328Z,7.95
2018-03-22T21:02:09.180Z,5.28
2018-03-22T21:04:36.716Z,7.75
2018-03-22T21:07:04.256Z,5.43
2018-03-22T21:09:31.870Z,5.57
2018-03-22T21:11:59.393Z,6.57
2018-03-22T21:14:26.935Z,5.97
2018-03-22T21:16:55.435Z,7.12
2018-03-22T21:19:22.945Z,6.85
2018-03-22T21:21:50.478Z,4.28
2018-03-22T21:24:17.995Z,3.87
2018-03-22T21:26:45.600Z,2.87
2018-03-22T21:29:15.382Z,3.62
2018-03-22T23:18:17.697Z,2.67
2018-03-22T23:20:48.137Z,2.87
2018-03-22T23:23:15.632Z,2.85
2018-03-22T23:25:43.215Z,2.37
2018-03-22T23:28:10.692Z,1.55
2018-03-22T23:36:16.471Z,0.80
2018-03-22T23:38:59.045Z,1.20
2018-03-22T23:41:26.553Z,1.33
2018-03-22T23:43:54.101Z,2.47
2018-03-22T23:46:21.629Z,0.62
2018-03-22T23:48:50.907Z,0.68
2018-03-22T23:55:56.836Z,0.98
2018-03-22T23:58:24.368Z,0.75
